EDDE/ERF METAR and TAF weather

Enter ICAO airport designator
Station Type Date Time Source
EDDE METAR 2019/12/14 05:50 UTC NOAA

EDDE 140550Z 19013KT 9999 SCT023 04/00 Q0984 NOSIG


Station Type Date Time Source
EDDE Decoded METAR 2019/12/14 05:50 UTC NOAA

Erfurt-Bindersleben, Germany (EDDE) 50-59N 010-58E 322M
Dec 14, 2019 - 12:50 AM EST / 2019.12.14 0550 UTC
Wind: from the S (190 degrees) at 15 MPH (13 KT):0
Visibility: greater than 7 mile(s):0
Sky conditions: partly cloudy
Temperature: 39 F (4 C)
Dew Point: 32 F (0 C)
Relative Humidity: 75%
Pressure (altimeter): 29.06 in. Hg (0984 hPa)
ob: EDDE 140550Z 19013KT 9999 SCT023 04/00 Q0984 NOSIG
cycle: 6

Station Type Date Time Source
EDDE TAF 2019/12/14 06:27 UTC NOAA

TAF TAF EDDE 140500Z 1406/1506 21014KT 9999 BKN025
BECMG 1409/1411 27020G35KT
BECMG 1412/1415 25015G25KT

Example: see airport list